Weather History for KMGN - October, 2013

Change the Weather History Date:

Wednesday, October 2, 2013

  Actual Average (KPLN) Record (KPLN)
Temperature  
Mean Temperature 60 °F -  
Max Temperature 69 °F 63 °F 85 °F (1971)
Min Temperature 52 °F 41 °F 24 °F (2003)
Degree Days  
Heating Degree Days 4    
Growing Degree Days 10 (Base 50)    
Moisture  
Dew Point 50 °F    
Average Humidity 67    
Maximum Humidity 86    
Minimum Humidity 47    
Precipitation  
Precipitation 0.00 in - - ()
Sea Level Pressure  
Sea Level Pressure 30.01 in    
Wind  
Wind Speed 5 mph (West)    
Max Wind Speed 10 mph    
Max Gust Speed 16 mph    
Visibility 10 miles    
Events      
Averages and records for this station are not official NWS values.
T = Trace of Precipitation, MM = Missing Value Source: NWS Daily Summary

Daily Weather History Graph

Daily Weather History Graph

Search for Another Location

Airport or City:

Trip Planner

Search our weather history database for the weather conditions in past years. The results will help you decide how hot, cold, wet, or windy it might be!

Date:

Astronomy

Oct. 02, 2013 Rise Set
Actual Time 7:39 AM EDT 7:17 PM EDT
Civil Twilight 7:09 AM EDT 7:47 PM EDT
Nautical Twilight 6:35 AM EDT 8:21 PM EDT
Astronomical Twilight 6:00 AM EDT 8:55 PM EDT
Moon 5:06 AM EDT (10/2) 5:57 PM EDT (10/2)
Length of Visible Light 12h 37m
Length of Day
11h 38m
Waning Crescent, 6% of the Moon is Illuminated
Oct 2
Waning Crescent
Oct 4
New
Oct 11
First Quarter
Oct 18
Full
Oct 26
Last Quarter

Hourly Weather History & Observations

Time (EDT) Temp. Dew Point Humidity Pressure Visibility Wind Dir Wind Speed Gust Speed Precip Events Conditions
12:14 AM 68.0 °F 60.3 °F 76% 29.84 in 10.0 mi West 9.2 mph 16.1 mph N/A   Scattered Clouds
12:34 AM 67.1 °F 60.3 °F 79% 29.85 in 10.0 mi West 6.9 mph - N/A   Clear
12:55 AM 64.9 °F 59.2 °F 82% 29.86 in 10.0 mi West 4.6 mph - N/A   Clear
1:14 AM 62.8 °F 56.5 °F 80% 29.86 in 10.0 mi West 4.6 mph - N/A   Clear
1:35 AM 62.4 °F 56.3 °F 80% 29.88 in 10.0 mi West 4.6 mph - N/A   Clear
1:55 AM 61.2 °F 55.6 °F 82% 29.88 in 10.0 mi Calm Calm - N/A   Clear
2:14 AM 61.3 °F 52.3 °F 72% 29.89 in 10.0 mi WNW 4.6 mph - N/A   Clear
2:35 AM 61.2 °F 48.7 °F 64% 29.90 in 10.0 mi West 3.5 mph - N/A   Clear
2:54 AM 61.2 °F 47.1 °F 60% 29.91 in 10.0 mi West 3.5 mph - N/A   Clear
3:14 AM 59.9 °F 46.9 °F 62% 29.91 in 10.0 mi SW 4.6 mph - N/A   Clear
3:35 AM 59.9 °F 47.5 °F 64% 29.91 in 10.0 mi WSW 3.5 mph - N/A   Clear
3:54 AM 59.9 °F 48.7 °F 67% 29.92 in 10.0 mi SW 3.5 mph - N/A   Clear
4:14 AM 59.9 °F 48.0 °F 65% 29.92 in 10.0 mi WSW 3.5 mph - N/A   Clear
4:35 AM 58.1 °F 47.1 °F 67% 29.93 in 10.0 mi West 3.5 mph - N/A   Clear
4:54 AM 57.9 °F 45.7 °F 64% 29.94 in 10.0 mi WSW 3.5 mph - N/A   Clear
5:14 AM 59.9 °F 45.7 °F 59% 29.94 in 10.0 mi Calm Calm - N/A   Clear
5:35 AM 57.9 °F 46.0 °F 65% 29.95 in 10.0 mi West 4.6 mph - N/A   Clear
5:54 AM 57.9 °F 46.4 °F 65% 29.96 in 10.0 mi West 3.5 mph - N/A   Clear
6:14 AM 57.4 °F 46.6 °F 67% 29.96 in 10.0 mi West 5.8 mph - N/A   Clear
6:35 AM 57.4 °F 45.9 °F 65% 29.96 in 10.0 mi West 5.8 mph - N/A   Clear
6:54 AM 57.4 °F 46.4 °F 67% 29.97 in 10.0 mi West 3.5 mph - N/A   Clear
7:14 AM 57.4 °F 46.8 °F 68% 29.98 in 10.0 mi West 4.6 mph - N/A   Clear
7:35 AM 57.4 °F 47.3 °F 69% 29.99 in 10.0 mi West 4.6 mph - N/A   Clear
7:54 AM 57.4 °F 47.5 °F 70% 30.00 in 10.0 mi West 5.8 mph - N/A   Clear
8:14 AM 57.9 °F 47.5 °F 68% 30.00 in 10.0 mi West 6.9 mph - N/A   Clear
8:35 AM 59.9 °F 49.1 °F 67% 30.00 in 10.0 mi West 5.8 mph - N/A   Clear
8:54 AM 59.9 °F 49.1 °F 67% 30.01 in 10.0 mi West 4.6 mph - N/A   Clear
9:14 AM 61.2 °F 49.6 °F 66% 30.01 in 10.0 mi West 4.6 mph - N/A   Clear
9:35 AM 61.7 °F 50.7 °F 67% 30.02 in 10.0 mi WSW 4.6 mph - N/A   Clear
9:54 AM 63.3 °F 50.5 °F 63% 30.03 in 10.0 mi WSW 5.8 mph - N/A   Clear
10:14 AM 64.9 °F 51.4 °F 62% 30.04 in 10.0 mi WSW 8.1 mph - N/A   Clear
10:35 AM 64.9 °F 50.2 °F 59% 30.05 in 10.0 mi WSW 6.9 mph - N/A   Clear
10:54 AM 65.5 °F 51.4 °F 60% 30.05 in 10.0 mi WSW 9.2 mph - N/A   Clear
11:14 AM 66.7 °F 53.2 °F 62% 30.06 in 10.0 mi West 6.9 mph - N/A   Clear
11:35 AM 67.5 °F 52.5 °F 59% 30.06 in 10.0 mi WSW 10.4 mph - N/A   Clear
11:54 AM 67.3 °F 53.4 °F 61% 30.07 in 10.0 mi WSW 9.2 mph - N/A   Clear
12:14 PM 67.5 °F 53.8 °F 61% 30.07 in 10.0 mi WSW 8.1 mph - N/A   Clear
12:35 PM 67.5 °F 54.0 °F 62% 30.07 in 10.0 mi WSW 8.1 mph - N/A   Clear
12:54 PM 67.5 °F 54.0 °F 62% 30.07 in 10.0 mi WSW 8.1 mph - N/A   Clear
1:15 PM 67.8 °F 54.7 °F 63% 30.07 in 10.0 mi WSW 6.9 mph - N/A   Clear
1:35 PM 67.6 °F 54.5 °F 63% 30.07 in 10.0 mi WSW 8.1 mph - N/A   Clear
1:54 PM 67.6 °F 55.8 °F 66% 30.07 in 10.0 mi WSW 8.1 mph - N/A   Clear
2:15 PM 67.5 °F 55.8 °F 66% 30.07 in 10.0 mi WSW 9.2 mph - N/A   Clear
2:34 PM 67.6 °F 56.1 °F 67% 30.06 in 10.0 mi WSW 9.2 mph - N/A   Clear
2:54 PM 67.8 °F 55.8 °F 65% 30.07 in 10.0 mi WSW 9.2 mph - N/A   Clear
3:15 PM 67.5 °F 55.4 °F 65% 30.07 in 10.0 mi WSW 8.1 mph - N/A   Clear
3:34 PM 67.5 °F 55.0 °F 64% 30.07 in 10.0 mi WSW 6.9 mph - N/A   Clear
3:54 PM 67.5 °F 53.1 °F 60% 30.07 in 10.0 mi WSW 6.9 mph - N/A   Clear
4:15 PM 67.5 °F 54.1 °F 62% 30.07 in 10.0 mi WSW 6.9 mph - N/A   Clear
4:34 PM 69.8 °F 51.4 °F 52% 30.07 in 10.0 mi WSW 5.8 mph - N/A   Clear
4:54 PM 69.6 °F 48.6 °F 47% 30.07 in 10.0 mi West 6.9 mph - N/A   Clear
5:15 PM 67.5 °F 48.6 °F 51% 30.06 in 10.0 mi WSW 4.6 mph - N/A   Clear
5:34 PM 67.5 °F 48.6 °F 51% 30.06 in 10.0 mi WSW 6.9 mph - N/A   Clear
5:55 PM 65.3 °F 48.7 °F 55% 30.06 in 10.0 mi WSW 3.5 mph - N/A   Clear
6:15 PM 64.9 °F 49.1 °F 56% 30.06 in 10.0 mi West 4.6 mph - N/A   Clear
6:34 PM 63.1 °F 46.9 °F 55% 30.06 in 10.0 mi West 3.5 mph - N/A   Clear
6:55 PM 61.2 °F 45.9 °F 57% 30.06 in 10.0 mi WNW 3.5 mph - N/A   Clear
7:14 PM 59.9 °F 46.8 °F 62% 30.06 in 10.0 mi WNW 4.6 mph - N/A   Clear
7:34 PM 59.9 °F 46.8 °F 62% 30.06 in 10.0 mi WNW 5.8 mph - N/A   Clear
7:55 PM 59.9 °F 47.3 °F 63% 30.06 in 10.0 mi WNW 3.5 mph - N/A   Clear
8:14 PM 57.7 °F 46.8 °F 67% 30.07 in 10.0 mi WNW 3.5 mph - N/A   Clear
8:34 PM 57.4 °F 48.0 °F 71% 30.07 in 10.0 mi Calm Calm - N/A   Clear
8:55 PM 56.7 °F 48.0 °F 73% 30.07 in 10.0 mi Calm Calm - N/A   Clear
9:14 PM 55.0 °F 48.2 °F 78% 30.07 in 10.0 mi Calm Calm - N/A   Clear
9:34 PM 54.9 °F 48.9 °F 80% 30.07 in 10.0 mi Calm Calm - N/A   Clear
9:55 PM 54.9 °F 48.9 °F 80% 30.08 in 10.0 mi Calm Calm - N/A   Clear
10:14 PM 54.9 °F 49.8 °F 83% 30.08 in 10.0 mi North 3.5 mph - N/A   Clear
10:34 PM 54.9 °F 50.0 °F 84% 30.08 in 10.0 mi Calm Calm - N/A   Clear
10:55 PM 54.9 °F 50.2 °F 84% 30.08 in 10.0 mi North 3.5 mph - N/A   Clear
11:14 PM 52.9 °F 48.9 °F 86% 30.07 in 10.0 mi Calm Calm - N/A   Clear
11:34 PM 54.9 °F 50.5 °F 85% 30.08 in 10.0 mi Calm Calm - N/A   Clear
11:55 PM 53.6 °F 49.3 °F 85% 30.08 in 10.0 mi Calm Calm - N/A   Clear